Time;durP1;ratioP1;P1;durP2;ratioP2;P2;SDS_P1;SDS_P2;PMS_P1;PMS_P2;Temp;Humidity;BMP_temperature;BMP_pressure;BME280_temperature;BME280_humidity;BME280_pressure;Samples;Min_cycle;Max_cycle;Signal;HPM_P1;HPM_P2
2023/06/01 00:01:12;;;;;;;9.50;4.90;;;;;;;12.10;69.71;98809.02;104734;1264;98804;-68
2023/06/01 00:03:40;;;;;;;9.90;5.20;;;;;;;12.10;70.12;98806.48;104554;1264;98501;-71
2023/06/01 00:06:07;;;;;;;11.10;6.20;;;;;;;12.07;70.47;98807.50;104708;1257;111169;-65
2023/06/01 00:08:35;;;;;;;10.60;5.90;;;;;;;12.04;70.69;98808.37;104626;1276;98030;-65
2023/06/01 00:11:02;;;;;;;10.30;5.20;;;;;;;12.07;70.87;98807.84;104815;1262;108640;-65
2023/06/01 00:13:30;;;;;;;11.70;6.00;;;;;;;12.12;70.94;98808.00;104689;1267;97971;-67
2023/06/01 00:15:57;;;;;;;13.10;6.60;;;;;;;12.03;71.08;98808.02;104588;1264;98076;-66
2023/06/01 00:18:27;;;;;;;12.80;6.30;;;;;;;11.96;71.16;98805.50;104527;1264;98014;-67
2023/06/01 00:20:54;;;;;;;12.60;6.60;;;;;;;11.94;71.29;98805.58;104316;1264;348054;-67
2023/06/01 00:23:22;;;;;;;10.70;6.70;;;;;;;11.93;71.72;98807.73;104738;1264;108609;-68
2023/06/01 00:25:49;;;;;;;9.30;5.80;;;;;;;11.95;71.65;98806.09;104765;1257;98808;-68
2023/06/01 00:28:16;;;;;;;14.40;7.30;;;;;;;11.90;71.54;98808.04;104938;1263;97967;-68
2023/06/01 00:30:43;;;;;;;15.10;8.40;;;;;;;11.86;71.47;98806.78;104906;1264;97934;-68
2023/06/01 00:33:10;;;;;;;10.90;6.70;;;;;;;11.86;71.73;98806.35;104899;1258;99219;-69
2023/06/01 00:35:38;;;;;;;14.70;7.90;;;;;;;11.83;71.88;98809.73;104842;1258;99314;-69
2023/06/01 00:38:06;;;;;;;11.10;7.00;;;;;;;11.80;72.13;98804.42;104897;1257;97912;-69
2023/06/01 00:40:34;;;;;;;16.30;6.80;;;;;;;11.77;72.34;98804.55;104555;1257;98438;-69
2023/06/01 00:43:02;;;;;;;11.30;6.30;;;;;;;11.74;72.19;98805.02;104916;1263;112288;-66
2023/06/01 00:45:29;;;;;;;17.10;8.50;;;;;;;11.71;72.25;98803.69;104642;1267;98012;-68
2023/06/01 00:47:57;;;;;;;24.00;12.10;;;;;;;11.70;72.35;98802.23;104864;1264;98368;-67
2023/06/01 00:50:25;;;;;;;13.20;6.80;;;;;;;11.70;72.79;98800.04;104865;1264;97993;-68
2023/06/01 00:52:53;;;;;;;10.40;6.10;;;;;;;11.72;72.80;98801.37;104945;1257;99289;-68
2023/06/01 00:55:21;;;;;;;14.50;6.60;;;;;;;11.75;72.86;98805.29;104618;1270;109954;-68
2023/06/01 00:57:50;;;;;;;23.50;10.30;;;;;;;11.80;72.71;98803.98;104910;1264;99455;-68
2023/06/01 01:00:18;;;;;;;19.80;9.60;;;;;;;11.81;72.99;98808.08;104636;1264;107506;-68
2023/06/01 01:02:45;;;;;;;21.30;9.10;;;;;;;11.78;72.67;98803.02;104916;1270;98033;-68
2023/06/01 01:05:12;;;;;;;20.30;10.10;;;;;;;11.74;72.76;98804.38;104937;1257;97938;-68
2023/06/01 01:08:02;;;;;;;17.00;7.90;;;;;;;11.65;72.91;98802.83;104856;1264;97941;-68
2023/06/01 01:10:34;;;;;;;19.10;8.10;;;;;;;11.56;72.94;98804.10;104792;1263;99775;-69
2023/06/01 01:13:13;;;;;;;23.50;9.80;;;;;;;11.49;73.31;98802.16;104901;1257;108629;-68
2023/06/01 01:16:07;;;;;;;21.20;10.00;;;;;;;11.45;73.53;98800.23;104583;1266;98732;-68
2023/06/01 01:18:46;;;;;;;20.20;9.00;;;;;;;11.46;73.66;98801.64;104850;1271;98379;-69
2023/06/01 01:21:22;;;;;;;17.30;8.40;;;;;;;11.48;73.64;98801.89;104614;1272;112203;-69
2023/06/01 01:24:16;;;;;;;15.70;8.20;;;;;;;11.49;73.68;98804.29;104541;1265;98702;-70
2023/06/01 01:27:14;;;;;;;16.70;7.40;;;;;;;11.44;73.59;98801.92;104850;1273;108586;-69
2023/06/01 01:29:45;;;;;;;15.70;7.10;;;;;;;11.39;73.82;98801.14;104545;1267;99427;-70
2023/06/01 01:32:14;;;;;;;11.90;6.30;;;;;;;11.40;73.76;98797.55;104618;1260;98130;-69
2023/06/01 01:34:45;;;;;;;11.10;6.30;;;;;;;11.30;73.85;98792.92;104924;1271;112227;-66
2023/06/01 01:37:12;;;;;;;9.60;5.70;;;;;;;11.27;74.03;98791.70;104849;1263;99211;-67
2023/06/01 01:39:40;;;;;;;9.20;5.90;;;;;;;11.25;73.74;98789.07;104772;1273;108740;-66
2023/06/01 01:42:08;;;;;;;11.70;6.60;;;;;;;11.16;73.86;98787.23;104783;1262;97934;-67
2023/06/01 01:44:36;;;;;;;10.00;6.20;;;;;;;11.08;74.02;98785.17;104835;1263;98078;-67
2023/06/01 01:47:27;;;;;;;10.80;5.70;;;;;;;10.99;74.26;98778.20;104520;1263;111454;-68
2023/06/01 01:49:59;;;;;;;10.80;6.10;;;;;;;10.90;74.47;98774.00;104907;1257;98777;-69
2023/06/01 01:52:35;;;;;;;10.40;5.50;;;;;;;10.82;74.86;98771.63;104598;1280;108277;-69
2023/06/01 01:55:04;;;;;;;9.90;6.00;;;;;;;10.77;74.98;98769.05;104894;1280;99101;-68
2023/06/01 01:57:34;;;;;;;16.20;6.40;;;;;;;10.75;75.18;98771.77;104827;1258;98886;-67
2023/06/01 02:00:03;;;;;;;10.80;5.90;;;;;;;10.80;75.26;98770.45;104848;1270;112039;-68
2023/06/01 02:02:30;;;;;;;11.00;5.90;;;;;;;10.86;74.97;98765.14;104643;1275;98665;-65
2023/06/01 02:04:58;;;;;;;10.90;6.10;;;;;;;10.88;74.72;98762.60;104919;1261;108756;-66
2023/06/01 02:07:25;;;;;;;10.70;6.60;;;;;;;10.80;75.07;98763.16;104942;1260;98811;-68
2023/06/01 02:09:53;;;;;;;12.70;6.70;;;;;;;10.76;75.12;98763.38;104905;1264;97951;-68
2023/06/01 02:12:20;;;;;;;11.80;6.20;;;;;;;10.71;75.42;98762.69;104658;1261;97923;-64
2023/06/01 02:14:47;;;;;;;10.50;6.30;;;;;;;10.60;75.55;98760.91;104779;1261;98002;-68
2023/06/01 02:17:15;;;;;;;11.10;6.50;;;;;;;10.53;75.66;98760.75;104834;1256;97924;-67
2023/06/01 02:19:43;;;;;;;10.00;6.10;;;;;;;10.52;75.74;98754.24;104534;1266;98038;-68
2023/06/01 02:22:11;;;;;;;10.30;6.20;;;;;;;10.47;75.73;98757.98;104921;1260;98193;-67
2023/06/01 02:24:39;;;;;;;12.50;6.90;;;;;;;10.39;75.92;98759.79;104473;1265;110287;-66
2023/06/01 02:27:07;;;;;;;9.80;6.20;;;;;;;10.31;75.93;98758.98;104895;1270;99245;-66
2023/06/01 02:29:35;;;;;;;8.10;5.70;;;;;;;10.27;75.93;98757.66;104630;1263;98044;-68
2023/06/01 02:32:02;;;;;;;10.30;6.20;;;;;;;10.31;75.93;98755.91;104492;1260;99241;-68
2023/06/01 02:34:30;;;;;;;14.80;6.70;;;;;;;10.37;76.15;98753.91;104595;1265;98458;-67
2023/06/01 02:36:57;;;;;;;12.50;6.30;;;;;;;10.43;75.76;98750.74;104551;1260;112191;-67
2023/06/01 02:39:24;;;;;;;11.90;5.70;;;;;;;10.47;75.69;98750.09;104963;1263;99218;-69
2023/06/01 02:41:52;;;;;;;10.70;5.70;;;;;;;10.47;75.82;98746.59;104765;1260;99226;-67
2023/06/01 02:44:19;;;;;;;11.10;6.50;;;;;;;10.48;75.94;98746.12;104823;1260;99235;-71
2023/06/01 02:46:47;;;;;;;11.40;6.70;;;;;;;10.47;76.00;98744.82;104740;1273;98608;-75
2023/06/01 02:49:14;;;;;;;15.10;7.60;;;;;;;10.43;76.19;98746.43;104915;1260;98034;-68
2023/06/01 02:51:41;;;;;;;14.40;6.80;;;;;;;10.38;76.58;98742.92;104963;1270;98386;-70
2023/06/01 02:54:08;;;;;;;13.40;6.80;;;;;;;10.36;76.71;98738.94;104904;1260;98039;-67
2023/06/01 02:56:36;;;;;;;11.90;6.40;;;;;;;10.31;76.88;98739.59;104948;1260;99271;-67
2023/06/01 02:59:03;;;;;;;14.80;7.20;;;;;;;10.30;77.04;98736.33;104962;1263;98039;-68
2023/06/01 03:01:35;;;;;;;13.20;7.00;;;;;;;10.32;76.99;98732.17;104912;1260;98417;-66
2023/06/01 03:04:06;;;;;;;12.00;7.20;;;;;;;10.36;76.90;98734.45;104895;1267;99264;-69
2023/06/01 03:06:37;;;;;;;12.40;6.80;;;;;;;10.42;76.89;98732.09;104595;1273;107609;-67
2023/06/01 03:09:05;;;;;;;11.60;6.60;;;;;;;10.50;76.82;98734.17;104598;1266;97952;-69
2023/06/01 03:11:32;;;;;;;12.60;7.40;;;;;;;10.53;76.67;98733.79;104776;1264;99979;-66
2023/06/01 03:14:00;;;;;;;12.00;8.00;;;;;;;10.51;76.94;98735.63;104916;1257;98022;-68
2023/06/01 03:16:27;;;;;;;11.40;6.70;;;;;;;10.51;77.18;98732.95;104906;1263;98022;-68
2023/06/01 03:18:55;;;;;;;14.60;7.80;;;;;;;10.53;77.18;98737.45;104581;1267;99369;-69
2023/06/01 03:21:22;;;;;;;14.40;7.70;;;;;;;10.58;77.16;98740.46;104576;1262;97974;-68
2023/06/01 03:23:49;;;;;;;13.80;7.80;;;;;;;10.62;77.56;98740.73;104890;1258;97918;-69
2023/06/01 03:26:20;;;;;;;11.80;7.50;;;;;;;10.64;77.66;98739.89;104853;1281;97926;-69
2023/06/01 03:28:48;;;;;;;11.10;7.40;;;;;;;10.69;77.81;98742.93;104615;1275;98819;-69
2023/06/01 03:31:15;;;;;;;13.00;7.20;;;;;;;10.69;77.95;98746.28;104885;1264;97944;-69
2023/06/01 03:33:42;;;;;;;12.10;6.50;;;;;;;10.69;77.97;98741.77;104900;1258;99218;-69
2023/06/01 03:36:10;;;;;;;11.10;7.20;;;;;;;10.74;78.05;98739.36;104870;1257;99104;-68
2023/06/01 03:38:37;;;;;;;10.20;6.60;;;;;;;10.82;78.18;98739.27;104639;1266;111199;-71
2023/06/01 03:41:05;;;;;;;10.90;7.10;;;;;;;10.96;77.59;98734.84;104521;1264;97978;-70
2023/06/01 03:43:33;;;;;;;11.10;7.00;;;;;;;11.14;77.26;98737.77;104603;1273;108151;-70
2023/06/01 03:46:01;;;;;;;16.20;7.50;;;;;;;11.30;77.76;98734.58;104764;1262;99228;-71
2023/06/01 03:48:29;;;;;;;10.60;6.40;;;;;;;11.44;77.64;98736.60;104868;1264;99107;-70
2023/06/01 03:50:56;;;;;;;12.20;6.90;;;;;;;11.66;77.64;98738.82;104464;1260;110748;-70
2023/06/01 03:53:25;;;;;;;15.40;8.30;;;;;;;11.93;76.81;98736.63;104769;1264;98838;-67
2023/06/01 03:55:52;;;;;;;11.50;6.90;;;;;;;12.17;76.41;98733.11;104554;1260;107771;-70
2023/06/01 03:58:20;;;;;;;13.80;6.90;;;;;;;12.37;76.21;98732.66;104628;1281;97977;-70
2023/06/01 04:00:47;;;;;;;11.00;6.70;;;;;;;12.54;75.83;98729.80;104742;1262;99344;-68
2023/06/01 04:03:15;;;;;;;12.90;7.50;;;;;;;12.73;75.20;98726.77;104551;1260;99274;-67
2023/06/01 04:05:50;;;;;;;15.20;7.80;;;;;;;12.87;74.88;98726.58;104445;1260;98770;-70
2023/06/01 04:08:19;;;;;;;12.10;7.10;;;;;;;12.97;74.43;98729.95;104673;1262;108517;-69
2023/06/01 04:10:46;;;;;;;11.70;7.20;;;;;;;13.06;74.22;98728.45;104765;1274;99238;-69
2023/06/01 04:13:13;;;;;;;11.90;7.30;;;;;;;13.21;73.75;98728.35;104589;1273;97919;-68
2023/06/01 04:15:41;;;;;;;12.00;7.40;;;;;;;13.36;74.22;98723.14;104774;1257;98011;-65
2023/06/01 04:18:08;;;;;;;12.30;7.30;;;;;;;13.54;73.75;98722.52;104658;1262;98024;-70
2023/06/01 04:20:36;;;;;;;13.50;7.20;;;;;;;13.72;73.59;98724.91;104713;1257;97899;-65
2023/06/01 04:23:02;;;;;;;13.70;7.70;;;;;;;13.89;72.35;98720.17;104732;1271;98502;-64
2023/06/01 04:25:30;;;;;;;13.80;7.60;;;;;;;13.99;71.50;98720.27;104915;1263;99129;-64
2023/06/01 04:27:57;;;;;;;16.00;8.20;;;;;;;14.09;71.21;98724.88;104977;1260;97986;-64
2023/06/01 04:30:24;;;;;;;11.90;7.30;;;;;;;14.19;70.85;98727.13;104960;1257;99218;-66
2023/06/01 04:32:53;;;;;;;15.90;7.90;;;;;;;14.24;70.53;98722.84;104819;1260;98014;-64
2023/06/01 04:35:20;;;;;;;13.00;7.70;;;;;;;14.33;70.52;98723.86;104832;1260;98031;-68
2023/06/01 04:37:49;;;;;;;15.00;8.30;;;;;;;14.42;70.30;98721.27;104619;1256;98005;-65
2023/06/01 04:40:16;;;;;;;15.40;8.20;;;;;;;14.53;69.97;98722.69;104812;1263;111341;-65
2023/06/01 04:42:48;;;;;;;11.20;7.00;;;;;;;14.57;69.93;98719.83;104517;1257;99103;-65
2023/06/01 04:45:16;;;;;;;15.10;7.30;;;;;;;14.60;69.51;98718.20;104809;1261;108196;-69
2023/06/01 04:47:44;;;;;;;10.60;6.70;;;;;;;14.62;69.47;98719.29;104688;1263;97934;-67
2023/06/01 04:50:12;;;;;;;14.90;7.20;;;;;;;14.61;69.24;98715.25;104680;1264;98164;-69
2023/06/01 04:52:41;;;;;;;11.90;7.10;;;;;;;14.67;69.22;98717.26;104827;1261;112400;-69
2023/06/01 04:55:10;;;;;;;13.60;7.20;;;;;;;14.77;69.13;98710.59;104647;1257;99460;-70
2023/06/01 04:57:38;;;;;;;12.50;7.30;;;;;;;14.92;68.77;98716.90;104631;1267;107597;-69
2023/06/01 05:00:13;;;;;;;13.70;6.90;;;;;;;15.01;67.97;98715.30;104892;1262;98015;-69
2023/06/01 05:02:46;;;;;;;10.10;6.30;;;;;;;15.05;67.99;98714.09;104581;1260;98588;-66
2023/06/01 05:05:15;;;;;;;13.20;7.00;;;;;;;15.13;67.84;98712.85;104910;1257;112145;-69
2023/06/01 05:07:42;;;;;;;10.40;7.20;;;;;;;15.24;67.98;98716.14;104631;1265;98094;-69
2023/06/01 05:10:12;;;;;;;12.70;7.20;;;;;;;15.35;67.38;98717.60;104874;1275;107593;-69
2023/06/01 05:12:39;;;;;;;13.70;7.50;;;;;;;15.39;67.21;98714.02;104637;1265;98015;-67
2023/06/01 05:15:08;;;;;;;13.40;7.80;;;;;;;15.50;67.57;98712.08;104950;1262;98037;-70
2023/06/01 05:17:35;;;;;;;16.90;8.60;;;;;;;15.67;67.19;98711.56;104900;1263;112154;-69
2023/06/01 05:20:03;;;;;;;17.20;8.80;;;;;;;15.86;66.20;98713.00;104845;1263;97938;-69
2023/06/01 05:22:31;;;;;;;14.60;8.60;;;;;;;15.98;66.59;98714.65;104625;1266;107220;-70
2023/06/01 05:24:58;;;;;;;15.30;9.20;;;;;;;16.21;66.76;98712.17;104671;1258;97922;-69
2023/06/01 05:27:25;;;;;;;14.40;8.40;;;;;;;16.41;66.26;98708.38;104845;1263;97937;-72
2023/06/01 05:29:53;;;;;;;17.20;9.00;;;;;;;16.65;66.53;98705.30;104680;1262;98015;-68
2023/06/01 05:32:20;;;;;;;14.30;8.50;;;;;;;16.89;65.45;98702.61;104887;1262;97967;-70
2023/06/01 05:34:47;;;;;;;17.00;8.40;;;;;;;17.10;64.99;98699.85;104885;1262;97931;-67
2023/06/01 05:37:15;;;;;;;14.10;7.60;;;;;;;17.32;64.39;98701.72;104840;1280;98735;-68
2023/06/01 05:39:42;;;;;;;10.40;6.50;;;;;;;17.53;64.20;98700.65;104872;1262;97931;-68
2023/06/01 05:42:09;;;;;;;18.50;9.00;;;;;;;17.74;62.75;98700.73;104836;1271;97925;-67
2023/06/01 05:44:36;;;;;;;11.90;6.30;;;;;;;17.79;61.82;98699.89;104791;1263;97992;-68
2023/06/01 05:47:04;;;;;;;9.60;6.20;;;;;;;17.79;61.13;98699.10;104836;1262;97882;-66
2023/06/01 05:49:35;;;;;;;9.10;5.70;;;;;;;17.84;61.10;98700.09;104728;1259;99114;-68
2023/06/01 05:52:05;;;;;;;8.70;5.40;;;;;;;17.90;60.37;98697.84;104858;1263;99130;-64
2023/06/01 05:54:32;;;;;;;15.40;7.70;;;;;;;17.91;59.74;98695.55;104670;1265;111743;-67
2023/06/01 05:57:00;;;;;;;11.60;6.50;;;;;;;17.97;60.09;98695.61;104784;1258;99177;-67
2023/06/01 05:59:27;;;;;;;10.50;5.60;;;;;;;18.06;59.76;98694.53;104482;1266;108202;-64
2023/06/01 06:01:55;;;;;;;8.10;5.70;;;;;;;18.10;58.71;98697.16;104743;1263;99228;-67
2023/06/01 06:04:22;;;;;;;10.40;5.90;;;;;;;18.09;59.11;98691.41;104825;1262;99196;-66
2023/06/01 06:06:49;;;;;;;11.80;6.30;;;;;;;18.20;58.27;98691.59;104766;1263;97978;-66
2023/06/01 06:09:17;;;;;;;13.00;5.70;;;;;;;18.31;58.94;98691.89;104905;1264;97945;-66
2023/06/01 06:11:45;;;;;;;13.70;6.40;;;;;;;18.51;58.67;98690.30;104589;1266;107658;-67
2023/06/01 06:14:13;;;;;;;13.20;6.30;;;;;;;18.64;57.51;98691.41;104911;1262;98129;-66
2023/06/01 06:16:42;;;;;;;10.70;6.70;;;;;;;18.66;57.23;98691.05;104872;1260;97951;-64
2023/06/01 06:19:09;;;;;;;10.50;5.60;;;;;;;18.74;57.72;98691.20;104658;1264;111250;-65
2023/06/01 06:21:37;;;;;;;13.80;6.10;;;;;;;18.90;57.69;98689.41;104638;1265;98806;-65
2023/06/01 06:24:05;;;;;;;14.00;6.50;;;;;;;19.03;56.82;98687.90;104865;1273;108631;-65
2023/06/01 06:26:33;;;;;;;10.60;5.70;;;;;;;19.22;56.74;98688.95;104877;1261;99199;-64
2023/06/01 06:29:00;;;;;;;13.50;6.00;;;;;;;19.37;56.51;98689.10;104853;1260;98540;-66
2023/06/01 06:31:27;;;;;;;10.80;5.00;;;;;;;19.65;56.94;98689.30;104820;1265;98003;-66
2023/06/01 06:33:55;;;;;;;13.10;4.90;;;;;;;19.96;56.03;98689.48;104572;1265;98003;-64
2023/06/01 06:36:23;;;;;;;11.20;5.10;;;;;;;20.13;54.91;98686.47;104466;1263;109538;-66
2023/06/01 06:38:50;;;;;;;10.80;4.90;;;;;;;20.37;54.60;98683.09;104487;1262;98621;-65
2023/06/01 06:41:18;;;;;;;9.50;5.50;;;;;;;20.70;54.90;98680.73;104768;1262;98862;-66
2023/06/01 06:43:45;;;;;;;9.50;5.00;;;;;;;21.00;54.39;98687.34;104806;1263;112368;-65
2023/06/01 06:46:12;;;;;;;7.50;4.50;;;;;;;21.25;53.42;98686.59;104570;1262;98010;-66
2023/06/01 06:48:40;;;;;;;10.30;5.00;;;;;;;21.50;52.59;98685.35;104486;1259;98613;-67
2023/06/01 06:51:07;;;;;;;7.40;4.20;;;;;;;21.72;52.56;98682.30;104832;1263;97924;-65
2023/06/01 06:53:34;;;;;;;6.20;4.80;;;;;;;21.97;51.38;98676.33;104937;1275;97953;-67
2023/06/01 06:56:01;;;;;;;7.30;4.30;;;;;;;22.21;51.32;98675.16;104683;1262;97929;-67
2023/06/01 06:58:28;;;;;;;9.80;4.60;;;;;;;22.42;50.41;98679.38;104776;1263;99222;-67
2023/06/01 07:00:55;;;;;;;9.20;3.80;;;;;;;22.63;49.23;98672.91;104756;1264;97966;-67
2023/06/01 07:03:22;;;;;;;6.10;3.80;;;;;;;22.81;48.50;98673.27;104605;1263;97944;-64
2023/06/01 07:05:50;;;;;;;6.40;4.10;;;;;;;22.91;48.52;98668.65;104875;1262;98018;-66
2023/06/01 07:08:17;;;;;;;8.90;4.10;;;;;;;23.04;48.00;98670.34;104776;1260;99208;-65
2023/06/01 07:10:45;;;;;;;7.70;4.60;;;;;;;23.11;47.40;98667.62;104876;1262;99208;-65
2023/06/01 07:13:13;;;;;;;6.30;3.90;;;;;;;23.38;48.18;98670.27;104853;1272;99254;-65
2023/06/01 07:15:40;;;;;;;8.40;4.00;;;;;;;23.72;47.17;98667.50;104824;1259;99209;-66
2023/06/01 07:18:07;;;;;;;7.30;4.40;;;;;;;23.86;46.93;98666.27;104604;1262;98027;-65
2023/06/01 07:20:35;;;;;;;7.70;3.90;;;;;;;23.96;46.22;98661.28;104842;1262;97943;-66
2023/06/01 07:23:02;;;;;;;9.70;4.20;;;;;;;24.04;44.87;98663.81;104774;1262;98004;-66
2023/06/01 07:25:29;;;;;;;8.40;4.50;;;;;;;24.20;45.14;98661.84;104813;1262;97940;-66
2023/06/01 07:27:58;;;;;;;6.80;3.80;;;;;;;24.32;43.60;98658.02;104681;1262;98083;-65
2023/06/01 07:30:25;;;;;;;10.60;4.70;;;;;;;24.28;45.06;98660.85;104909;1259;98111;-66
2023/06/01 07:32:52;;;;;;;10.60;4.30;;;;;;;24.63;45.88;98660.34;104699;1262;97945;-66
2023/06/01 07:35:20;;;;;;;7.70;4.20;;;;;;;25.06;45.28;98659.90;104606;1263;99256;-65
2023/06/01 07:37:47;;;;;;;8.60;4.50;;;;;;;25.43;43.48;98660.30;104787;1262;98373;-65
2023/06/01 07:40:16;;;;;;;6.80;4.20;;;;;;;25.74;42.99;98655.04;104781;1264;97916;-66
2023/06/01 07:42:43;;;;;;;6.40;4.20;;;;;;;25.91;42.10;98649.16;104879;1262;98063;-66
2023/06/01 07:45:10;;;;;;;9.00;4.50;;;;;;;26.08;41.35;98650.23;104531;1259;97931;-66
2023/06/01 07:47:37;;;;;;;8.50;4.00;;;;;;;26.24;40.30;98649.64;104798;1262;97954;-65
2023/06/01 07:50:06;;;;;;;10.30;4.20;;;;;;;26.49;40.31;98649.57;104580;1262;99340;-67
2023/06/01 07:52:33;;;;;;;6.60;3.40;;;;;;;26.77;40.91;98647.71;104585;1261;98834;-66
2023/06/01 07:55:03;;;;;;;9.20;4.00;;;;;;;27.14;40.01;98650.45;104668;1259;98015;-66
2023/06/01 07:57:30;;;;;;;6.80;3.70;;;;;;;27.43;38.38;98647.95;104720;1264;112474;-64
2023/06/01 07:59:58;;;;;;;7.90;3.50;;;;;;;27.36;36.94;98647.59;104690;1260;99339;-66
2023/06/01 08:02:26;;;;;;;6.60;3.80;;;;;;;27.25;37.69;98646.73;104556;1262;97988;-66
2023/06/01 08:04:56;;;;;;;5.50;3.20;;;;;;;27.41;37.91;98647.66;104849;1262;97986;-65
2023/06/01 08:07:27;;;;;;;6.40;2.90;;;;;;;27.60;37.27;98646.92;104789;1262;98021;-66
2023/06/01 08:09:57;;;;;;;6.80;2.60;;;;;;;27.75;34.56;98650.68;104338;1265;111788;-66
2023/06/01 08:12:26;;;;;;;4.70;2.70;;;;;;;27.76;34.36;98649.21;104525;1265;98015;-69
2023/06/01 08:14:53;;;;;;;4.00;2.50;;;;;;;27.89;34.60;98647.11;104359;1267;108153;-67
2023/06/01 08:17:21;;;;;;;5.80;2.20;;;;;;;28.21;35.02;98641.45;104771;1262;97900;-63
2023/06/01 08:19:48;;;;;;;4.60;2.00;;;;;;;28.54;33.62;98641.90;104606;1259;98102;-63
2023/06/01 08:22:17;;;;;;;3.10;1.90;;;;;;;28.83;31.82;98637.29;104771;1274;99165;-63
2023/06/01 08:24:45;;;;;;;2.70;1.90;;;;;;;28.77;30.04;98637.83;104750;1259;99273;-64
2023/06/01 08:27:21;;;;;;;4.80;2.00;;;;;;;28.77;31.64;98636.96;104616;1260;107844;-63
2023/06/01 08:29:52;;;;;;;5.00;1.90;;;;;;;29.11;31.70;98632.91;104743;1262;98021;-64
2023/06/01 08:32:21;;;;;;;5.60;2.10;;;;;;;29.37;31.62;98634.69;104570;1265;99559;-63
2023/06/01 08:34:49;;;;;;;5.40;2.50;;;;;;;29.56;30.57;98634.59;104829;1262;112292;-64
2023/06/01 08:37:17;;;;;;;3.90;2.10;;;;;;;29.55;29.41;98630.43;104825;1262;99015;-63
2023/06/01 08:39:44;;;;;;;4.90;2.30;;;;;;;29.58;30.03;98632.38;104721;1271;108710;-65
2023/06/01 08:42:27;;;;;;;5.20;2.20;;;;;;;29.83;30.37;98629.50;104592;1262;98180;-65
2023/06/01 08:44:55;;;;;;;6.10;1.90;;;;;;;30.11;30.40;98629.52;104492;1265;97954;-64
2023/06/01 08:47:28;;;;;;;6.40;1.90;;;;;;;30.18;29.95;98627.69;104628;1262;112014;-64
2023/06/01 08:49:59;;;;;;;5.70;2.20;;;;;;;30.24;29.67;98621.71;104598;1260;98272;-64
2023/06/01 08:52:36;;;;;;;5.80;1.80;;;;;;;30.53;28.60;98614.23;104645;1265;107845;-65
2023/06/01 08:55:19;;;;;;;3.90;2.00;;;;;;;30.74;28.47;98617.77;104763;1260;97938;-64
2023/06/01 08:57:47;;;;;;;4.30;1.80;;;;;;;30.89;28.20;98613.01;104678;1264;98546;-65
2023/06/01 09:00:16;;;;;;;2.70;1.80;;;;;;;31.12;28.29;98613.00;104791;1262;112342;-64
2023/06/01 09:02:44;;;;;;;4.00;1.70;;;;;;;30.87;25.99;98610.82;104647;1265;99349;-65
2023/06/01 09:05:12;;;;;;;2.80;2.00;;;;;;;30.71;26.34;98610.89;104504;1267;107705;-64
2023/06/01 09:07:40;;;;;;;4.90;2.10;;;;;;;30.74;26.48;98603.39;104661;1276;97969;-65
2023/06/01 09:10:08;;;;;;;3.20;2.20;;;;;;;30.62;26.01;98599.15;104574;1265;99143;-65
2023/06/01 09:12:39;;;;;;;5.00;1.90;;;;;;;30.39;26.30;98598.81;104544;1262;112188;-65
2023/06/01 09:15:17;;;;;;;6.00;2.10;;;;;;;30.52;28.26;98594.55;104525;1260;99040;-64
2023/06/01 09:17:50;;;;;;;4.40;1.90;;;;;;;30.78;28.12;98594.52;104709;1262;108601;-64
2023/06/01 09:20:26;;;;;;;4.20;1.90;;;;;;;30.98;28.02;98594.13;104604;1262;97915;-64
2023/06/01 09:22:54;;;;;;;5.80;2.10;;;;;;;31.11;27.19;98588.85;104555;1260;98021;-65
2023/06/01 09:25:31;;;;;;;3.60;1.80;;;;;;;30.79;24.70;98587.85;104641;1265;111181;-65
2023/06/01 09:28:00;;;;;;;3.30;1.60;;;;;;;30.90;26.35;98590.09;104644;1266;99225;-65
2023/06/01 09:30:45;;;;;;;4.20;1.90;;;;;;;31.17;25.13;98586.77;104701;1262;108553;-65
2023/06/01 09:33:15;;;;;;;4.20;2.20;;;;;;;31.01;25.00;98577.46;104498;1269;98133;-68
2023/06/01 09:35:43;;;;;;;;;;;;;;;31.01;27.42;98582.00;104608;1262;97955;-70
2023/06/01 09:38:12;;;;;;;5.80;2.10;;;;;;;31.23;25.97;98581.71;104795;1259;112412;-66
2023/06/01 09:40:39;;;;;;;5.80;2.10;;;;;;;31.50;26.54;98583.16;104635;1265;99471;-64
2023/06/01 09:43:27;;;;;;;5.40;2.40;;;;;;;31.80;25.45;98585.36;104578;1264;108153;-64
2023/06/01 09:46:20;;;;;;;3.30;2.00;;;;;;;32.11;24.77;98581.23;104530;1268;99235;-64
2023/06/01 09:48:49;;;;;;;3.20;1.90;;;;;;;31.91;24.11;98579.30;104556;1266;98015;-64
2023/06/01 09:51:29;;;;;;;6.10;2.00;;;;;;;31.93;23.51;98573.73;104393;1270;111280;-64
2023/06/01 09:53:57;;;;;;;3.10;1.90;;;;;;;32.09;25.15;98571.44;104723;1259;99240;-64
2023/06/01 09:56:25;;;;;;;3.10;1.90;;;;;;;32.29;24.37;98570.89;104656;1260;108690;-66
2023/06/01 09:59:02;;;;;;;3.70;2.30;;;;;;;32.32;23.34;98566.24;104568;1263;97980;-65
2023/06/01 10:01:33;;;;;;;4.90;2.30;;;;;;;32.41;23.98;98562.66;104598;1266;97993;-65
2023/06/01 10:04:04;;;;;;;4.80;1.90;;;;;;;32.45;24.03;98562.17;104822;1262;111819;-65
2023/06/01 10:06:39;;;;;;;4.50;1.60;;;;;;;32.56;24.19;98563.80;104606;1261;99564;-66
2023/06/01 10:09:18;;;;;;;3.20;1.70;;;;;;;32.68;23.94;98558.56;104745;1262;107862;-65
2023/06/01 10:11:47;;;;;;;4.50;2.00;;;;;;;32.90;24.03;98560.49;104425;1268;98050;-66
2023/06/01 10:14:17;;;;;;;3.70;1.80;;;;;;;32.95;22.80;98561.20;104836;1262;98038;-65
2023/06/01 10:16:44;;;;;;;;;;;;;;;32.89;22.35;98564.54;104659;1265;111737;-66
2023/06/01 10:19:12;;;;;;;3.40;1.80;;;;;;;32.81;23.70;98562.34;104656;1265;99194;-66
2023/06/01 10:21:42;;;;;;;2.80;1.90;;;;;;;33.20;23.52;98564.20;104755;1262;97919;-66
2023/06/01 10:24:11;;;;;;;3.70;1.80;;;;;;;33.32;22.21;98558.09;104773;1272;98018;-65
2023/06/01 10:26:47;;;;;;;3.00;2.10;;;;;;;33.29;21.78;98551.02;104746;1262;98204;-65
2023/06/01 10:29:18;;;;;;;3.50;2.10;;;;;;;33.17;22.36;98556.07;104419;1265;111801;-66
2023/06/01 10:31:45;;;;;;;3.20;1.80;;;;;;;33.28;22.22;98545.13;104449;1265;98295;-64
2023/06/01 10:34:13;;;;;;;5.20;2.00;;;;;;;33.32;21.47;98539.22;104565;1262;108327;-65
2023/06/01 10:36:52;;;;;;;4.00;1.80;;;;;;;33.17;22.19;98537.02;104961;1262;97941;-65
2023/06/01 10:39:24;;;;;;;3.80;1.70;;;;;;;33.37;23.90;98536.71;104675;1263;98827;-65
2023/06/01 10:41:56;;;;;;;3.70;1.80;;;;;;;33.41;22.24;98537.41;104494;1259;111053;-65
2023/06/01 10:44:41;;;;;;;2.60;1.60;;;;;;;33.38;23.18;98532.02;104982;1264;99116;-65
2023/06/01 10:47:11;;;;;;;4.90;1.70;;;;;;;33.33;22.80;98527.68;104866;1264;108463;-65
2023/06/01 10:49:50;;;;;;;4.90;2.70;;;;;;;33.48;23.48;98527.31;104398;1268;99443;-65
2023/06/01 10:52:34;;;;;;;3.40;1.80;;;;;;;33.71;22.34;98526.04;104271;1260;99139;-65
2023/06/01 10:55:10;;;;;;;3.40;1.50;;;;;;;33.69;22.72;98524.32;104432;1265;111268;-67
2023/06/01 10:57:38;;;;;;;2.70;1.60;;;;;;;33.90;23.42;98525.09;104448;1262;99184;-67
2023/06/01 11:00:13;;;;;;;5.00;2.30;;;;;;;33.79;21.69;98521.27;104466;1277;109248;-66
2023/06/01 11:02:53;;;;;;;2.90;1.70;;;;;;;33.77;22.08;98520.89;104624;1275;97983;-65
2023/06/01 11:05:36;;;;;;;4.50;2.00;;;;;;;33.69;22.09;98517.54;104470;1264;101457;-66
2023/06/01 11:08:29;;;;;;;3.20;2.20;;;;;;;33.97;21.92;98519.48;104695;1263;112298;-63
2023/06/01 11:11:06;;;;;;;4.70;1.80;;;;;;;33.99;22.12;98515.64;104157;1270;99225;-65
2023/06/01 11:13:35;;;;;;;4.20;2.20;;;;;;;33.86;22.60;98512.69;104130;1271;108597;-66
2023/06/01 11:16:18;;;;;;;;;;;;;;;33.64;21.91;98507.85;104102;1268;98113;-63
2023/06/01 11:18:57;;;;;;;2.20;1.80;;;;;;;33.75;23.25;98506.22;104135;1271;98137;-63
2023/06/01 11:21:37;;;;;;;3.20;1.60;;;;;;;33.65;23.04;98508.26;104156;1271;112346;-63
2023/06/01 11:24:16;;;;;;;6.60;2.00;;;;;;;33.50;22.92;98501.70;104078;1271;99210;-63
2023/06/01 11:26:48;;;;;;;;;;;;;;;33.83;22.41;98498.58;104070;1273;108275;-65
2023/06/01 11:29:23;;;;;;;3.60;1.70;;;;;;;34.19;22.92;98494.16;104293;1267;98047;-65
2023/06/01 11:31:56;;;;;;;3.90;3.40;;;;;;;34.59;20.68;98491.95;104102;1272;98198;-65